sensor_id;sensor_type;location;lat;lon;timestamp;P1;durP1;ratioP1;P2;durP2;ratioP2
27003;SDS011;14546;47.590;19.022;2023-03-12T00:01:40;5.63;;;3.70;;
27003;SDS011;14546;47.590;19.022;2023-03-12T00:04:06;5.85;;;3.47;;
27003;SDS011;14546;47.590;19.022;2023-03-12T00:06:32;6.82;;;3.40;;
27003;SDS011;14546;47.590;19.022;2023-03-12T00:08:58;7.35;;;3.58;;
27003;SDS011;14546;47.590;19.022;2023-03-12T00:11:26;6.32;;;3.33;;
27003;SDS011;14546;47.590;19.022;2023-03-12T00:13:53;4.20;;;3.20;;
27003;SDS011;14546;47.590;19.022;2023-03-12T00:16:22;5.50;;;3.58;;
27003;SDS011;14546;47.590;19.022;2023-03-12T00:18:49;8.52;;;3.92;;
27003;SDS011;14546;47.590;19.022;2023-03-12T00:21:15;4.88;;;3.42;;
27003;SDS011;14546;47.590;19.022;2023-03-12T00:23:42;5.70;;;3.83;;
27003;SDS011;14546;47.590;19.022;2023-03-12T00:26:09;4.43;;;3.03;;
27003;SDS011;14546;47.590;19.022;2023-03-12T00:28:36;5.53;;;3.50;;
27003;SDS011;14546;47.590;19.022;2023-03-12T00:31:02;5.82;;;3.45;;
27003;SDS011;14546;47.590;19.022;2023-03-12T00:33:28;5.45;;;3.15;;
27003;SDS011;14546;47.590;19.022;2023-03-12T00:35:55;5.40;;;2.92;;
27003;SDS011;14546;47.590;19.022;2023-03-12T00:38:21;4.97;;;3.05;;
27003;SDS011;14546;47.590;19.022;2023-03-12T00:40:47;6.28;;;3.25;;
27003;SDS011;14546;47.590;19.022;2023-03-12T00:43:14;5.65;;;3.10;;
27003;SDS011;14546;47.590;19.022;2023-03-12T00:45:41;5.13;;;2.70;;
27003;SDS011;14546;47.590;19.022;2023-03-12T00:48:08;4.95;;;3.08;;
27003;SDS011;14546;47.590;19.022;2023-03-12T00:50:35;7.05;;;2.95;;
27003;SDS011;14546;47.590;19.022;2023-03-12T00:53:02;6.35;;;2.30;;
27003;SDS011;14546;47.590;19.022;2023-03-12T00:55:28;3.50;;;2.10;;
27003;SDS011;14546;47.590;19.022;2023-03-12T00:57:54;6.88;;;2.80;;
27003;SDS011;14546;47.590;19.022;2023-03-12T01:00:20;4.45;;;2.42;;
27003;SDS011;14546;47.590;19.022;2023-03-12T01:02:47;5.47;;;2.25;;
27003;SDS011;14546;47.590;19.022;2023-03-12T01:05:14;4.80;;;2.55;;
27003;SDS011;14546;47.590;19.022;2023-03-12T01:07:40;5.35;;;2.88;;
27003;SDS011;14546;47.590;19.022;2023-03-12T01:10:07;3.10;;;2.22;;
27003;SDS011;14546;47.590;19.022;2023-03-12T01:12:33;4.60;;;2.45;;
27003;SDS011;14546;47.590;19.022;2023-03-12T01:14:59;3.47;;;2.42;;
27003;SDS011;14546;47.590;19.022;2023-03-12T01:17:25;10.18;;;2.40;;
27003;SDS011;14546;47.590;19.022;2023-03-12T01:19:51;3.95;;;2.63;;
27003;SDS011;14546;47.590;19.022;2023-03-12T01:22:17;3.92;;;2.13;;
27003;SDS011;14546;47.590;19.022;2023-03-12T01:24:44;4.82;;;2.22;;
27003;SDS011;14546;47.590;19.022;2023-03-12T01:27:11;4.07;;;1.85;;
27003;SDS011;14546;47.590;19.022;2023-03-12T01:29:38;3.92;;;2.30;;
27003;SDS011;14546;47.590;19.022;2023-03-12T01:32:04;3.47;;;2.38;;
27003;SDS011;14546;47.590;19.022;2023-03-12T01:34:31;4.43;;;2.15;;
27003;SDS011;14546;47.590;19.022;2023-03-12T01:37:00;5.65;;;2.08;;
27003;SDS011;14546;47.590;19.022;2023-03-12T01:39:26;6.07;;;2.90;;
27003;SDS011;14546;47.590;19.022;2023-03-12T01:41:53;3.05;;;2.35;;
27003;SDS011;14546;47.590;19.022;2023-03-12T01:44:19;3.15;;;2.47;;
27003;SDS011;14546;47.590;19.022;2023-03-12T01:46:46;5.07;;;2.60;;
27003;SDS011;14546;47.590;19.022;2023-03-12T01:49:32;3.75;;;2.78;;
27003;SDS011;14546;47.590;19.022;2023-03-12T01:52:05;3.95;;;2.20;;
27003;SDS011;14546;47.590;19.022;2023-03-12T01:56:58;4.38;;;3.05;;
27003;SDS011;14546;47.590;19.022;2023-03-12T01:59:27;6.68;;;2.95;;
27003;SDS011;14546;47.590;19.022;2023-03-12T02:01:54;4.63;;;3.00;;
27003;SDS011;14546;47.590;19.022;2023-03-12T02:04:20;5.32;;;3.63;;
27003;SDS011;14546;47.590;19.022;2023-03-12T02:09:20;5.28;;;3.35;;
27003;SDS011;14546;47.590;19.022;2023-03-12T02:11:47;7.80;;;3.40;;
27003;SDS011;14546;47.590;19.022;2023-03-12T02:14:13;5.18;;;3.30;;
27003;SDS011;14546;47.590;19.022;2023-03-12T02:16:40;4.22;;;3.08;;
27003;SDS011;14546;47.590;19.022;2023-03-12T02:19:08;6.28;;;3.50;;
27003;SDS011;14546;47.590;19.022;2023-03-12T02:21:37;5.53;;;2.92;;
27003;SDS011;14546;47.590;19.022;2023-03-12T02:26:32;4.88;;;3.53;;
27003;SDS011;14546;47.590;19.022;2023-03-12T02:28:59;10.77;;;3.53;;
27003;SDS011;14546;47.590;19.022;2023-03-12T02:31:27;5.03;;;3.13;;
27003;SDS011;14546;47.590;19.022;2023-03-12T02:33:54;7.45;;;3.58;;
27003;SDS011;14546;47.590;19.022;2023-03-12T02:36:20;5.60;;;3.78;;
27003;SDS011;14546;47.590;19.022;2023-03-12T02:38:47;6.57;;;3.85;;
27003;SDS011;14546;47.590;19.022;2023-03-12T02:43:51;7.35;;;3.95;;
27003;SDS011;14546;47.590;19.022;2023-03-12T02:46:21;6.82;;;3.67;;
27003;SDS011;14546;47.590;19.022;2023-03-12T02:48:47;9.20;;;4.20;;
27003;SDS011;14546;47.590;19.022;2023-03-12T02:51:13;5.57;;;3.85;;
27003;SDS011;14546;47.590;19.022;2023-03-12T02:53:39;7.40;;;4.28;;
27003;SDS011;14546;47.590;19.022;2023-03-12T02:56:06;7.40;;;4.38;;
27003;SDS011;14546;47.590;19.022;2023-03-12T02:58:32;6.45;;;4.28;;
27003;SDS011;14546;47.590;19.022;2023-03-12T03:00:58;5.97;;;4.28;;
27003;SDS011;14546;47.590;19.022;2023-03-12T03:03:24;10.32;;;4.68;;
27003;SDS011;14546;47.590;19.022;2023-03-12T03:05:50;6.28;;;4.10;;
27003;SDS011;14546;47.590;19.022;2023-03-12T03:08:16;6.50;;;4.20;;
27003;SDS011;14546;47.590;19.022;2023-03-12T03:10:42;8.52;;;5.50;;
27003;SDS011;14546;47.590;19.022;2023-03-12T03:13:10;11.10;;;6.50;;
27003;SDS011;14546;47.590;19.022;2023-03-12T03:15:36;10.25;;;6.03;;
27003;SDS011;14546;47.590;19.022;2023-03-12T03:18:03;8.63;;;5.63;;
27003;SDS011;14546;47.590;19.022;2023-03-12T03:20:30;8.63;;;5.55;;
27003;SDS011;14546;47.590;19.022;2023-03-12T03:22:56;10.43;;;6.18;;
27003;SDS011;14546;47.590;19.022;2023-03-12T03:25:23;8.40;;;5.13;;
27003;SDS011;14546;47.590;19.022;2023-03-12T03:27:49;7.47;;;5.10;;
27003;SDS011;14546;47.590;19.022;2023-03-12T03:30:15;9.27;;;5.45;;
27003;SDS011;14546;47.590;19.022;2023-03-12T03:32:41;9.57;;;5.90;;
27003;SDS011;14546;47.590;19.022;2023-03-12T03:35:07;10.65;;;6.28;;
27003;SDS011;14546;47.590;19.022;2023-03-12T03:37:33;11.30;;;6.00;;
27003;SDS011;14546;47.590;19.022;2023-03-12T03:39:59;8.32;;;5.72;;
27003;SDS011;14546;47.590;19.022;2023-03-12T03:42:26;7.78;;;5.93;;
27003;SDS011;14546;47.590;19.022;2023-03-12T03:44:52;10.55;;;7.00;;
27003;SDS011;14546;47.590;19.022;2023-03-12T03:47:18;10.18;;;6.10;;
27003;SDS011;14546;47.590;19.022;2023-03-12T03:49:45;10.52;;;7.00;;
27003;SDS011;14546;47.590;19.022;2023-03-12T03:52:11;9.10;;;6.28;;
27003;SDS011;14546;47.590;19.022;2023-03-12T03:54:37;11.63;;;7.50;;
27003;SDS011;14546;47.590;19.022;2023-03-12T03:57:03;10.15;;;7.13;;
27003;SDS011;14546;47.590;19.022;2023-03-12T03:59:29;12.13;;;7.00;;
27003;SDS011;14546;47.590;19.022;2023-03-12T04:01:56;14.15;;;7.80;;
27003;SDS011;14546;47.590;19.022;2023-03-12T04:04:22;15.88;;;8.48;;
27003;SDS011;14546;47.590;19.022;2023-03-12T04:06:48;18.08;;;9.80;;
27003;SDS011;14546;47.590;19.022;2023-03-12T04:09:15;15.60;;;9.05;;
27003;SDS011;14546;47.590;19.022;2023-03-12T04:11:42;15.77;;;9.10;;
27003;SDS011;14546;47.590;19.022;2023-03-12T04:14:08;14.80;;;9.20;;
27003;SDS011;14546;47.590;19.022;2023-03-12T04:16:34;14.82;;;8.50;;
27003;SDS011;14546;47.590;19.022;2023-03-12T04:19:02;14.23;;;8.38;;
27003;SDS011;14546;47.590;19.022;2023-03-12T04:21:28;13.35;;;8.02;;
27003;SDS011;14546;47.590;19.022;2023-03-12T04:23:54;14.05;;;8.38;;
27003;SDS011;14546;47.590;19.022;2023-03-12T04:26:21;14.15;;;8.27;;
27003;SDS011;14546;47.590;19.022;2023-03-12T04:28:47;16.20;;;8.63;;
27003;SDS011;14546;47.590;19.022;2023-03-12T04:31:13;15.63;;;9.57;;
27003;SDS011;14546;47.590;19.022;2023-03-12T04:33:39;16.40;;;9.02;;
27003;SDS011;14546;47.590;19.022;2023-03-12T04:36:06;14.80;;;9.38;;
27003;SDS011;14546;47.590;19.022;2023-03-12T04:38:32;12.77;;;8.07;;
27003;SDS011;14546;47.590;19.022;2023-03-12T04:41:06;15.25;;;9.05;;
27003;SDS011;14546;47.590;19.022;2023-03-12T04:43:32;16.00;;;8.57;;
27003;SDS011;14546;47.590;19.022;2023-03-12T04:45:59;14.55;;;8.10;;
27003;SDS011;14546;47.590;19.022;2023-03-12T04:48:26;14.45;;;8.45;;
27003;SDS011;14546;47.590;19.022;2023-03-12T04:50:53;16.90;;;9.10;;
27003;SDS011;14546;47.590;19.022;2023-03-12T04:53:19;15.73;;;9.30;;
27003;SDS011;14546;47.590;19.022;2023-03-12T04:55:45;17.50;;;10.60;;
27003;SDS011;14546;47.590;19.022;2023-03-12T04:58:12;14.48;;;9.40;;
27003;SDS011;14546;47.590;19.022;2023-03-12T05:00:38;15.93;;;10.35;;
27003;SDS011;14546;47.590;19.022;2023-03-12T05:03:05;15.10;;;9.73;;
27003;SDS011;14546;47.590;19.022;2023-03-12T05:05:31;18.80;;;10.60;;
27003;SDS011;14546;47.590;19.022;2023-03-12T05:07:57;14.77;;;9.93;;
27003;SDS011;14546;47.590;19.022;2023-03-12T05:10:25;17.50;;;9.73;;
27003;SDS011;14546;47.590;19.022;2023-03-12T05:12:51;19.23;;;10.45;;
27003;SDS011;14546;47.590;19.022;2023-03-12T05:15:17;16.55;;;10.70;;
27003;SDS011;14546;47.590;19.022;2023-03-12T05:17:44;18.60;;;10.95;;
27003;SDS011;14546;47.590;19.022;2023-03-12T05:20:11;18.27;;;10.75;;
27003;SDS011;14546;47.590;19.022;2023-03-12T05:22:37;19.00;;;10.38;;
27003;SDS011;14546;47.590;19.022;2023-03-12T05:25:03;17.05;;;10.57;;
27003;SDS011;14546;47.590;19.022;2023-03-12T05:27:30;16.98;;;11.18;;
27003;SDS011;14546;47.590;19.022;2023-03-12T05:29:56;17.55;;;10.52;;
27003;SDS011;14546;47.590;19.022;2023-03-12T05:32:22;19.42;;;11.80;;
27003;SDS011;14546;47.590;19.022;2023-03-12T05:34:48;16.60;;;11.15;;
27003;SDS011;14546;47.590;19.022;2023-03-12T05:37:14;17.63;;;10.52;;
27003;SDS011;14546;47.590;19.022;2023-03-12T05:39:40;18.33;;;10.65;;
27003;SDS011;14546;47.590;19.022;2023-03-12T05:42:13;18.65;;;10.82;;
27003;SDS011;14546;47.590;19.022;2023-03-12T05:44:40;15.48;;;10.10;;
27003;SDS011;14546;47.590;19.022;2023-03-12T05:47:06;16.73;;;10.23;;
27003;SDS011;14546;47.590;19.022;2023-03-12T05:49:32;20.10;;;11.93;;
27003;SDS011;14546;47.590;19.022;2023-03-12T05:51:58;17.73;;;11.18;;
27003;SDS011;14546;47.590;19.022;2023-03-12T05:54:24;18.88;;;11.30;;
27003;SDS011;14546;47.590;19.022;2023-03-12T05:56:50;17.67;;;11.20;;
27003;SDS011;14546;47.590;19.022;2023-03-12T05:59:17;17.70;;;10.98;;
27003;SDS011;14546;47.590;19.022;2023-03-12T06:01:43;18.73;;;11.25;;
27003;SDS011;14546;47.590;19.022;2023-03-12T06:04:09;19.27;;;10.95;;
27003;SDS011;14546;47.590;19.022;2023-03-12T06:06:35;15.98;;;11.15;;
27003;SDS011;14546;47.590;19.022;2023-03-12T06:09:02;19.58;;;11.48;;
27003;SDS011;14546;47.590;19.022;2023-03-12T06:11:29;18.33;;;11.90;;
27003;SDS011;14546;47.590;19.022;2023-03-12T06:13:56;23.63;;;10.93;;
27003;SDS011;14546;47.590;19.022;2023-03-12T06:16:23;16.52;;;9.95;;
27003;SDS011;14546;47.590;19.022;2023-03-12T06:18:54;23.42;;;12.15;;
27003;SDS011;14546;47.590;19.022;2023-03-12T06:21:21;18.55;;;11.40;;
27003;SDS011;14546;47.590;19.022;2023-03-12T06:23:47;15.18;;;9.63;;
27003;SDS011;14546;47.590;19.022;2023-03-12T06:26:14;16.67;;;10.10;;
27003;SDS011;14546;47.590;19.022;2023-03-12T06:28:40;16.52;;;10.02;;
27003;SDS011;14546;47.590;19.022;2023-03-12T06:31:07;20.60;;;10.43;;
27003;SDS011;14546;47.590;19.022;2023-03-12T06:33:33;17.85;;;10.40;;
27003;SDS011;14546;47.590;19.022;2023-03-12T06:36:00;18.13;;;10.90;;
27003;SDS011;14546;47.590;19.022;2023-03-12T06:38:27;16.60;;;10.32;;
27003;SDS011;14546;47.590;19.022;2023-03-12T06:40:57;16.45;;;10.27;;
27003;SDS011;14546;47.590;19.022;2023-03-12T06:43:23;18.63;;;10.35;;
27003;SDS011;14546;47.590;19.022;2023-03-12T06:45:50;16.10;;;9.60;;
27003;SDS011;14546;47.590;19.022;2023-03-12T06:48:16;18.77;;;11.25;;
27003;SDS011;14546;47.590;19.022;2023-03-12T06:50:42;15.48;;;9.43;;
27003;SDS011;14546;47.590;19.022;2023-03-12T06:53:08;18.52;;;11.02;;
27003;SDS011;14546;47.590;19.022;2023-03-12T06:55:34;18.30;;;11.27;;
27003;SDS011;14546;47.590;19.022;2023-03-12T06:58:00;16.13;;;10.30;;
27003;SDS011;14546;47.590;19.022;2023-03-12T07:00:28;17.60;;;10.52;;
27003;SDS011;14546;47.590;19.022;2023-03-12T07:02:54;18.23;;;10.73;;
27003;SDS011;14546;47.590;19.022;2023-03-12T07:05:21;15.43;;;10.13;;
27003;SDS011;14546;47.590;19.022;2023-03-12T07:07:47;16.50;;;8.07;;
27003;SDS011;14546;47.590;19.022;2023-03-12T07:10:13;14.85;;;9.95;;
27003;SDS011;14546;47.590;19.022;2023-03-12T07:12:39;14.98;;;10.23;;
27003;SDS011;14546;47.590;19.022;2023-03-12T07:15:05;14.65;;;7.53;;
27003;SDS011;14546;47.590;19.022;2023-03-12T07:17:31;20.48;;;11.20;;
27003;SDS011;14546;47.590;19.022;2023-03-12T07:19:57;16.92;;;9.55;;
27003;SDS011;14546;47.590;19.022;2023-03-12T07:22:23;16.88;;;10.68;;
27003;SDS011;14546;47.590;19.022;2023-03-12T07:24:49;15.95;;;10.48;;
27003;SDS011;14546;47.590;19.022;2023-03-12T07:27:16;20.52;;;10.18;;
27003;SDS011;14546;47.590;19.022;2023-03-12T07:29:42;20.63;;;10.20;;
27003;SDS011;14546;47.590;19.022;2023-03-12T07:32:08;18.30;;;9.80;;
27003;SDS011;14546;47.590;19.022;2023-03-12T07:34:34;16.48;;;10.13;;
27003;SDS011;14546;47.590;19.022;2023-03-12T07:37:00;15.45;;;10.05;;
27003;SDS011;14546;47.590;19.022;2023-03-12T07:39:27;14.23;;;9.43;;
27003;SDS011;14546;47.590;19.022;2023-03-12T07:41:53;17.90;;;10.38;;
27003;SDS011;14546;47.590;19.022;2023-03-12T07:44:19;15.63;;;9.15;;
27003;SDS011;14546;47.590;19.022;2023-03-12T07:46:45;15.45;;;9.50;;
27003;SDS011;14546;47.590;19.022;2023-03-12T07:49:11;15.98;;;9.20;;
27003;SDS011;14546;47.590;19.022;2023-03-12T07:51:38;17.70;;;10.00;;
27003;SDS011;14546;47.590;19.022;2023-03-12T07:54:05;14.80;;;9.65;;
27003;SDS011;14546;47.590;19.022;2023-03-12T07:56:32;11.13;;;6.50;;
27003;SDS011;14546;47.590;19.022;2023-03-12T07:58:58;12.50;;;7.93;;
27003;SDS011;14546;47.590;19.022;2023-03-12T08:01:24;15.35;;;9.52;;
27003;SDS011;14546;47.590;19.022;2023-03-12T08:03:55;13.93;;;8.82;;
27003;SDS011;14546;47.590;19.022;2023-03-12T08:06:21;13.98;;;9.10;;
27003;SDS011;14546;47.590;19.022;2023-03-12T08:08:48;14.70;;;8.48;;
27003;SDS011;14546;47.590;19.022;2023-03-12T08:11:15;11.38;;;7.70;;
27003;SDS011;14546;47.590;19.022;2023-03-12T08:13:41;13.95;;;8.63;;
27003;SDS011;14546;47.590;19.022;2023-03-12T08:16:07;13.82;;;8.40;;
27003;SDS011;14546;47.590;19.022;2023-03-12T08:18:33;12.55;;;7.88;;
27003;SDS011;14546;47.590;19.022;2023-03-12T08:20:59;11.75;;;8.13;;
27003;SDS011;14546;47.590;19.022;2023-03-12T08:23:25;18.17;;;8.10;;
27003;SDS011;14546;47.590;19.022;2023-03-12T08:25:52;8.77;;;6.03;;
27003;SDS011;14546;47.590;19.022;2023-03-12T08:28:19;9.68;;;5.55;;
27003;SDS011;14546;47.590;19.022;2023-03-12T08:30:46;12.90;;;7.20;;
27003;SDS011;14546;47.590;19.022;2023-03-12T08:33:12;12.85;;;6.75;;
27003;SDS011;14546;47.590;19.022;2023-03-12T08:35:38;9.52;;;6.60;;
27003;SDS011;14546;47.590;19.022;2023-03-12T08:38:04;10.35;;;7.13;;
27003;SDS011;14546;47.590;19.022;2023-03-12T08:40:30;31.70;;;8.05;;
27003;SDS011;14546;47.590;19.022;2023-03-12T08:42:56;9.88;;;6.60;;
27003;SDS011;14546;47.590;19.022;2023-03-12T08:45:22;8.20;;;5.57;;
27003;SDS011;14546;47.590;19.022;2023-03-12T08:47:48;7.70;;;5.50;;
27003;SDS011;14546;47.590;19.022;2023-03-12T08:50:15;8.15;;;5.60;;
27003;SDS011;14546;47.590;19.022;2023-03-12T08:52:41;9.70;;;6.13;;
27003;SDS011;14546;47.590;19.022;2023-03-12T08:55:08;8.40;;;5.43;;
27003;SDS011;14546;47.590;19.022;2023-03-12T08:57:34;7.03;;;4.80;;
27003;SDS011;14546;47.590;19.022;2023-03-12T09:00:00;8.45;;;5.50;;
27003;SDS011;14546;47.590;19.022;2023-03-12T09:02:29;7.50;;;4.38;;
27003;SDS011;14546;47.590;19.022;2023-03-12T09:04:55;7.53;;;4.93;;
27003;SDS011;14546;47.590;19.022;2023-03-12T09:07:21;8.30;;;4.65;;
27003;SDS011;14546;47.590;19.022;2023-03-12T09:09:48;7.75;;;4.95;;
27003;SDS011;14546;47.590;19.022;2023-03-12T09:12:15;5.65;;;4.15;;
27003;SDS011;14546;47.590;19.022;2023-03-12T09:14:41;5.85;;;4.10;;
27003;SDS011;14546;47.590;19.022;2023-03-12T09:17:08;6.32;;;4.28;;
27003;SDS011;14546;47.590;19.022;2023-03-12T09:19:35;7.35;;;4.55;;
27003;SDS011;14546;47.590;19.022;2023-03-12T09:22:01;6.18;;;4.25;;
27003;SDS011;14546;47.590;19.022;2023-03-12T09:24:28;6.72;;;4.32;;
27003;SDS011;14546;47.590;19.022;2023-03-12T09:26:55;6.40;;;4.75;;
27003;SDS011;14546;47.590;19.022;2023-03-12T09:29:22;6.07;;;3.90;;
27003;SDS011;14546;47.590;19.022;2023-03-12T09:31:50;6.25;;;4.07;;
27003;SDS011;14546;47.590;19.022;2023-03-12T09:34:17;6.05;;;3.80;;
27003;SDS011;14546;47.590;19.022;2023-03-12T09:36:43;6.80;;;3.70;;
27003;SDS011;14546;47.590;19.022;2023-03-12T09:39:10;11.25;;;4.43;;
27003;SDS011;14546;47.590;19.022;2023-03-12T09:41:37;10.73;;;3.83;;
27003;SDS011;14546;47.590;19.022;2023-03-12T09:47:07;5.43;;;3.50;;
27003;SDS011;14546;47.590;19.022;2023-03-12T09:49:36;23.67;;;3.92;;
27003;SDS011;14546;47.590;19.022;2023-03-12T09:52:07;127.68;;;9.38;;
27003;SDS011;14546;47.590;19.022;2023-03-12T09:54:43;26.58;;;4.03;;
27003;SDS011;14546;47.590;19.022;2023-03-12T09:57:16;4.88;;;3.50;;
27003;SDS011;14546;47.590;19.022;2023-03-12T09:59:44;49.80;;;5.93;;
27003;SDS011;14546;47.590;19.022;2023-03-12T10:02:22;11.15;;;3.78;;
27003;SDS011;14546;47.590;19.022;2023-03-12T10:05:05;19.85;;;4.10;;
27003;SDS011;14546;47.590;19.022;2023-03-12T10:07:31;4.57;;;3.45;;
27003;SDS011;14546;47.590;19.022;2023-03-12T10:10:04;5.32;;;3.55;;
27003;SDS011;14546;47.590;19.022;2023-03-12T10:12:40;13.23;;;3.83;;
27003;SDS011;14546;47.590;19.022;2023-03-12T10:18:15;20.40;;;3.95;;
27003;SDS011;14546;47.590;19.022;2023-03-12T10:21:04;8.30;;;3.85;;
27003;SDS011;14546;47.590;19.022;2023-03-12T10:26:11;7.20;;;3.60;;
27003;SDS011;14546;47.590;19.022;2023-03-12T10:28:42;64.43;;;7.55;;
27003;SDS011;14546;47.590;19.022;2023-03-12T10:31:14;12.27;;;3.55;;
27003;SDS011;14546;47.590;19.022;2023-03-12T10:33:43;7.53;;;3.50;;
27003;SDS011;14546;47.590;19.022;2023-03-12T10:36:16;19.77;;;3.58;;
27003;SDS011;14546;47.590;19.022;2023-03-12T10:38:44;6.32;;;3.72;;
27003;SDS011;14546;47.590;19.022;2023-03-12T10:41:14;4.60;;;3.63;;
27003;SDS011;14546;47.590;19.022;2023-03-12T10:43:41;3.83;;;3.17;;
27003;SDS011;14546;47.590;19.022;2023-03-12T10:48:40;8.18;;;3.10;;
27003;SDS011;14546;47.590;19.022;2023-03-12T10:51:09;3.63;;;2.95;;
27003;SDS011;14546;47.590;19.022;2023-03-12T10:53:38;4.95;;;2.90;;
27003;SDS011;14546;47.590;19.022;2023-03-12T10:58:38;3.88;;;3.17;;
27003;SDS011;14546;47.590;19.022;2023-03-12T11:01:14;4.47;;;3.47;;
27003;SDS011;14546;47.590;19.022;2023-03-12T11:03:41;4.70;;;3.65;;
27003;SDS011;14546;47.590;19.022;2023-03-12T11:06:08;5.43;;;3.63;;
27003;SDS011;14546;47.590;19.022;2023-03-12T11:08:39;4.28;;;3.80;;
27003;SDS011;14546;47.590;19.022;2023-03-12T11:11:06;5.22;;;3.80;;
27003;SDS011;14546;47.590;19.022;2023-03-12T11:13:37;5.05;;;3.50;;
27003;SDS011;14546;47.590;19.022;2023-03-12T11:21:26;4.10;;;3.17;;
27003;SDS011;14546;47.590;19.022;2023-03-12T11:26:22;3.53;;;2.92;;
27003;SDS011;14546;47.590;19.022;2023-03-12T11:28:50;5.30;;;2.90;;
27003;SDS011;14546;47.590;19.022;2023-03-12T11:31:24;3.28;;;2.60;;
27003;SDS011;14546;47.590;19.022;2023-03-12T11:33:51;3.47;;;2.70;;
27003;SDS011;14546;47.590;19.022;2023-03-12T11:38:59;5.45;;;2.67;;
27003;SDS011;14546;47.590;19.022;2023-03-12T11:41:35;6.15;;;2.35;;
27003;SDS011;14546;47.590;19.022;2023-03-12T11:44:10;4.38;;;2.60;;
27003;SDS011;14546;47.590;19.022;2023-03-12T11:46:51;2.75;;;2.20;;
27003;SDS011;14546;47.590;19.022;2023-03-12T11:49:22;3.30;;;2.25;;
27003;SDS011;14546;47.590;19.022;2023-03-12T11:51:56;2.90;;;2.20;;
27003;SDS011;14546;47.590;19.022;2023-03-12T11:56:53;3.05;;;2.40;;
27003;SDS011;14546;47.590;19.022;2023-03-12T12:04:44;3.20;;;2.30;;
27003;SDS011;14546;47.590;19.022;2023-03-12T12:10:06;2.72;;;1.88;;
27003;SDS011;14546;47.590;19.022;2023-03-12T12:17:55;3.17;;;2.22;;
27003;SDS011;14546;47.590;19.022;2023-03-12T12:30:42;2.15;;;1.95;;
27003;SDS011;14546;47.590;19.022;2023-03-12T12:33:38;2.53;;;1.80;;
27003;SDS011;14546;47.590;19.022;2023-03-12T12:36:09;2.25;;;1.90;;
27003;SDS011;14546;47.590;19.022;2023-03-12T12:38:39;2.03;;;1.80;;
27003;SDS011;14546;47.590;19.022;2023-03-12T12:41:12;3.72;;;2.30;;
27003;SDS011;14546;47.590;19.022;2023-03-12T12:46:08;2.00;;;1.73;;
27003;SDS011;14546;47.590;19.022;2023-03-12T12:48:43;3.50;;;2.10;;
27003;SDS011;14546;47.590;19.022;2023-03-12T12:51:11;4.05;;;2.00;;
27003;SDS011;14546;47.590;19.022;2023-03-12T12:56:14;5.78;;;1.83;;
27003;SDS011;14546;47.590;19.022;2023-03-12T12:58:50;1.83;;;1.65;;
27003;SDS011;14546;47.590;19.022;2023-03-12T13:01:19;2.22;;;1.70;;
27003;SDS011;14546;47.590;19.022;2023-03-12T13:03:45;1.90;;;1.70;;
27003;SDS011;14546;47.590;19.022;2023-03-12T13:06:12;1.80;;;1.70;;
27003;SDS011;14546;47.590;19.022;2023-03-12T13:13:33;2.85;;;2.10;;
27003;SDS011;14546;47.590;19.022;2023-03-12T13:18:57;4.07;;;2.90;;
27003;SDS011;14546;47.590;19.022;2023-03-12T13:21:34;5.85;;;2.28;;
27003;SDS011;14546;47.590;19.022;2023-03-12T13:24:21;3.10;;;2.40;;
27003;SDS011;14546;47.590;19.022;2023-03-12T13:27:00;3.38;;;2.30;;
27003;SDS011;14546;47.590;19.022;2023-03-12T13:31:57;2.53;;;2.33;;
27003;SDS011;14546;47.590;19.022;2023-03-12T13:36:56;2.13;;;1.92;;
27003;SDS011;14546;47.590;19.022;2023-03-12T13:39:33;2.20;;;1.65;;
27003;SDS011;14546;47.590;19.022;2023-03-12T13:42:00;2.28;;;1.60;;
27003;SDS011;14546;47.590;19.022;2023-03-12T13:49:22;2.35;;;2.08;;
27003;SDS011;14546;47.590;19.022;2023-03-12T13:51:58;2.53;;;2.05;;
27003;SDS011;14546;47.590;19.022;2023-03-12T13:54:30;2.90;;;2.22;;
27003;SDS011;14546;47.590;19.022;2023-03-12T13:56:58;2.58;;;2.30;;
27003;SDS011;14546;47.590;19.022;2023-03-12T13:59:25;3.58;;;2.72;;
27003;SDS011;14546;47.590;19.022;2023-03-12T14:01:56;3.20;;;2.90;;
27003;SDS011;14546;47.590;19.022;2023-03-12T14:04:24;5.05;;;2.60;;
27003;SDS011;14546;47.590;19.022;2023-03-12T14:06:57;4.43;;;2.97;;
27003;SDS011;14546;47.590;19.022;2023-03-12T14:09:33;3.90;;;3.10;;
27003;SDS011;14546;47.590;19.022;2023-03-12T14:17:27;5.35;;;3.13;;
27003;SDS011;14546;47.590;19.022;2023-03-12T14:19:56;3.70;;;2.38;;
27003;SDS011;14546;47.590;19.022;2023-03-12T14:22:27;3.72;;;2.45;;
27003;SDS011;14546;47.590;19.022;2023-03-12T14:24:56;3.33;;;2.95;;
27003;SDS011;14546;47.590;19.022;2023-03-12T14:27:27;2.80;;;2.50;;
27003;SDS011;14546;47.590;19.022;2023-03-12T14:29:58;3.85;;;2.88;;
27003;SDS011;14546;47.590;19.022;2023-03-12T14:32:28;3.05;;;2.75;;
27003;SDS011;14546;47.590;19.022;2023-03-12T14:34:57;4.85;;;3.10;;
27003;SDS011;14546;47.590;19.022;2023-03-12T14:37:43;2.75;;;2.17;;
27003;SDS011;14546;47.590;19.022;2023-03-12T14:42:38;2.03;;;1.80;;
27003;SDS011;14546;47.590;19.022;2023-03-12T14:47:39;1.75;;;1.58;;
27003;SDS011;14546;47.590;19.022;2023-03-12T14:50:06;3.20;;;2.30;;
27003;SDS011;14546;47.590;19.022;2023-03-12T14:52:33;3.80;;;2.35;;
27003;SDS011;14546;47.590;19.022;2023-03-12T14:55:01;3.17;;;2.42;;
27003;SDS011;14546;47.590;19.022;2023-03-12T14:57:28;3.90;;;1.90;;
27003;SDS011;14546;47.590;19.022;2023-03-12T14:59:58;2.83;;;2.08;;
27003;SDS011;14546;47.590;19.022;2023-03-12T15:02:26;2.83;;;2.10;;
27003;SDS011;14546;47.590;19.022;2023-03-12T15:04:53;3.03;;;1.92;;
27003;SDS011;14546;47.590;19.022;2023-03-12T15:07:22;3.10;;;2.28;;
27003;SDS011;14546;47.590;19.022;2023-03-12T15:09:51;2.58;;;1.95;;
27003;SDS011;14546;47.590;19.022;2023-03-12T15:14:46;4.97;;;2.10;;
27003;SDS011;14546;47.590;19.022;2023-03-12T15:17:16;4.07;;;2.42;;
27003;SDS011;14546;47.590;19.022;2023-03-12T15:19:46;3.97;;;2.90;;
27003;SDS011;14546;47.590;19.022;2023-03-12T15:22:17;2.80;;;2.03;;
27003;SDS011;14546;47.590;19.022;2023-03-12T15:24:45;5.13;;;2.65;;
27003;SDS011;14546;47.590;19.022;2023-03-12T15:27:27;2.42;;;2.03;;
27003;SDS011;14546;47.590;19.022;2023-03-12T15:29:58;3.35;;;2.08;;
27003;SDS011;14546;47.590;19.022;2023-03-12T15:32:26;2.28;;;2.00;;
27003;SDS011;14546;47.590;19.022;2023-03-12T15:34:54;2.72;;;2.10;;
27003;SDS011;14546;47.590;19.022;2023-03-12T15:37:39;3.60;;;2.10;;
27003;SDS011;14546;47.590;19.022;2023-03-12T15:40:15;2.88;;;2.17;;
27003;SDS011;14546;47.590;19.022;2023-03-12T15:42:46;4.82;;;2.58;;
27003;SDS011;14546;47.590;19.022;2023-03-12T15:45:20;9.18;;;4.30;;
27003;SDS011;14546;47.590;19.022;2023-03-12T15:47:47;6.88;;;4.15;;
27003;SDS011;14546;47.590;19.022;2023-03-12T15:50:18;4.05;;;2.70;;
27003;SDS011;14546;47.590;19.022;2023-03-12T15:52:58;3.75;;;2.63;;
27003;SDS011;14546;47.590;19.022;2023-03-12T15:55:27;4.20;;;3.00;;
27003;SDS011;14546;47.590;19.022;2023-03-12T15:57:54;3.80;;;2.60;;
27003;SDS011;14546;47.590;19.022;2023-03-12T16:05:16;4.18;;;2.42;;
27003;SDS011;14546;47.590;19.022;2023-03-12T16:07:43;8.10;;;3.10;;
27003;SDS011;14546;47.590;19.022;2023-03-12T16:10:13;5.45;;;2.85;;
27003;SDS011;14546;47.590;19.022;2023-03-12T16:12:40;7.25;;;4.00;;
27003;SDS011;14546;47.590;19.022;2023-03-12T16:15:11;7.65;;;3.58;;